Terminal Aerodrome Forecast
Issued by NWS

Home | Current Version | Previous Version | Text Only | Print | Product List | Glossary On
Versions: 1 2 3 4 5 6 7 8 9 10 11 12 13 14 15 16 17 18 19
139
FTUS43 KICT 241615 AAB
TAFCNU
TAF AMD
KCNU 241615Z 2416/2512 36011KT P6SM BKN015
     FM241800 07008KT P6SM SCT025 SCT150
     FM242100 13012KT P6SM BKN035=

USA.gov is the U.S. government's official web portal to all federal, state and local government web resources and services.